sensor_id;sensor_type;location;lat;lon;timestamp;P1;durP1;ratioP1;P2;durP2;ratioP2
33810;SDS011;20119;48.334;16.206;2023-02-28T00:01:21;17.23;;;10.93;;
33810;SDS011;20119;48.334;16.206;2023-02-28T00:03:49;20.40;;;11.38;;
33810;SDS011;20119;48.334;16.206;2023-02-28T00:06:16;17.67;;;11.02;;
33810;SDS011;20119;48.334;16.206;2023-02-28T00:08:44;17.10;;;11.13;;
33810;SDS011;20119;48.334;16.206;2023-02-28T00:11:12;18.77;;;11.48;;
33810;SDS011;20119;48.334;16.206;2023-02-28T00:13:41;16.27;;;10.48;;
33810;SDS011;20119;48.334;16.206;2023-02-28T00:16:14;17.98;;;11.43;;
33810;SDS011;20119;48.334;16.206;2023-02-28T00:18:43;19.88;;;11.18;;
33810;SDS011;20119;48.334;16.206;2023-02-28T00:21:10;19.95;;;12.38;;
33810;SDS011;20119;48.334;16.206;2023-02-28T00:23:37;18.98;;;11.88;;
33810;SDS011;20119;48.334;16.206;2023-02-28T00:26:05;22.38;;;11.68;;
33810;SDS011;20119;48.334;16.206;2023-02-28T00:28:32;21.00;;;12.57;;
33810;SDS011;20119;48.334;16.206;2023-02-28T00:30:59;18.67;;;12.15;;
33810;SDS011;20119;48.334;16.206;2023-02-28T00:33:28;18.17;;;11.98;;
33810;SDS011;20119;48.334;16.206;2023-02-28T00:36:02;17.95;;;11.77;;
33810;SDS011;20119;48.334;16.206;2023-02-28T00:38:31;20.60;;;12.05;;
33810;SDS011;20119;48.334;16.206;2023-02-28T00:40:58;19.17;;;12.10;;
33810;SDS011;20119;48.334;16.206;2023-02-28T00:43:29;17.98;;;12.10;;
33810;SDS011;20119;48.334;16.206;2023-02-28T00:45:58;20.88;;;12.65;;
33810;SDS011;20119;48.334;16.206;2023-02-28T00:48:25;21.17;;;12.52;;
33810;SDS011;20119;48.334;16.206;2023-02-28T00:50:54;20.13;;;12.88;;
33810;SDS011;20119;48.334;16.206;2023-02-28T00:53:21;20.58;;;12.23;;
33810;SDS011;20119;48.334;16.206;2023-02-28T00:55:49;22.25;;;13.05;;
33810;SDS011;20119;48.334;16.206;2023-02-28T00:58:16;22.13;;;13.05;;
33810;SDS011;20119;48.334;16.206;2023-02-28T01:00:43;21.73;;;12.85;;
33810;SDS011;20119;48.334;16.206;2023-02-28T01:05:41;20.75;;;12.63;;
33810;SDS011;20119;48.334;16.206;2023-02-28T01:08:09;18.50;;;12.18;;
33810;SDS011;20119;48.334;16.206;2023-02-28T01:10:36;19.45;;;11.88;;
33810;SDS011;20119;48.334;16.206;2023-02-28T01:13:04;18.55;;;11.75;;
33810;SDS011;20119;48.334;16.206;2023-02-28T01:15:30;19.35;;;12.38;;
33810;SDS011;20119;48.334;16.206;2023-02-28T01:17:58;22.50;;;12.77;;
33810;SDS011;20119;48.334;16.206;2023-02-28T01:20:25;24.83;;;12.57;;
33810;SDS011;20119;48.334;16.206;2023-02-28T01:22:52;20.13;;;12.00;;
33810;SDS011;20119;48.334;16.206;2023-02-28T01:25:21;22.85;;;13.25;;
33810;SDS011;20119;48.334;16.206;2023-02-28T01:27:48;19.90;;;12.60;;
33810;SDS011;20119;48.334;16.206;2023-02-28T01:30:15;21.20;;;12.75;;
33810;SDS011;20119;48.334;16.206;2023-02-28T01:35:31;20.05;;;12.45;;
33810;SDS011;20119;48.334;16.206;2023-02-28T01:37:59;19.15;;;13.18;;
33810;SDS011;20119;48.334;16.206;2023-02-28T01:40:28;19.80;;;12.40;;
33810;SDS011;20119;48.334;16.206;2023-02-28T01:42:55;20.33;;;12.70;;
33810;SDS011;20119;48.334;16.206;2023-02-28T01:45:23;19.73;;;12.85;;
33810;SDS011;20119;48.334;16.206;2023-02-28T01:47:54;20.95;;;13.45;;
33810;SDS011;20119;48.334;16.206;2023-02-28T01:50:25;21.25;;;13.50;;
33810;SDS011;20119;48.334;16.206;2023-02-28T01:52:56;20.02;;;13.00;;
33810;SDS011;20119;48.334;16.206;2023-02-28T01:55:29;20.58;;;12.25;;
33810;SDS011;20119;48.334;16.206;2023-02-28T01:57:58;20.23;;;12.70;;
33810;SDS011;20119;48.334;16.206;2023-02-28T02:00:28;20.67;;;12.88;;
33810;SDS011;20119;48.334;16.206;2023-02-28T02:02:57;20.08;;;13.27;;
33810;SDS011;20119;48.334;16.206;2023-02-28T02:05:27;21.10;;;12.63;;
33810;SDS011;20119;48.334;16.206;2023-02-28T02:07:57;22.40;;;13.98;;
33810;SDS011;20119;48.334;16.206;2023-02-28T02:10:31;22.60;;;14.43;;
33810;SDS011;20119;48.334;16.206;2023-02-28T02:13:05;23.40;;;13.77;;
33810;SDS011;20119;48.334;16.206;2023-02-28T02:15:42;20.75;;;13.60;;
33810;SDS011;20119;48.334;16.206;2023-02-28T02:18:17;22.20;;;13.55;;
33810;SDS011;20119;48.334;16.206;2023-02-28T02:24:03;20.05;;;13.10;;
33810;SDS011;20119;48.334;16.206;2023-02-28T02:35:47;20.92;;;13.10;;
33810;SDS011;20119;48.334;16.206;2023-02-28T02:38:18;21.85;;;12.95;;
33810;SDS011;20119;48.334;16.206;2023-02-28T02:40:58;19.95;;;12.98;;
33810;SDS011;20119;48.334;16.206;2023-02-28T02:43:34;21.13;;;13.18;;
33810;SDS011;20119;48.334;16.206;2023-02-28T02:46:06;19.70;;;12.90;;
33810;SDS011;20119;48.334;16.206;2023-02-28T02:48:38;22.10;;;13.07;;
33810;SDS011;20119;48.334;16.206;2023-02-28T02:51:11;23.42;;;12.95;;
33810;SDS011;20119;48.334;16.206;2023-02-28T02:53:42;22.98;;;13.48;;
33810;SDS011;20119;48.334;16.206;2023-02-28T02:56:14;21.40;;;13.15;;
33810;SDS011;20119;48.334;16.206;2023-02-28T02:58:44;18.13;;;12.73;;
33810;SDS011;20119;48.334;16.206;2023-02-28T03:01:18;20.92;;;13.05;;
33810;SDS011;20119;48.334;16.206;2023-02-28T03:03:54;21.42;;;13.20;;
33810;SDS011;20119;48.334;16.206;2023-02-28T03:06:25;20.45;;;12.80;;
33810;SDS011;20119;48.334;16.206;2023-02-28T03:08:53;20.42;;;13.15;;
33810;SDS011;20119;48.334;16.206;2023-02-28T03:11:20;21.77;;;12.88;;
33810;SDS011;20119;48.334;16.206;2023-02-28T03:13:58;20.45;;;13.20;;
33810;SDS011;20119;48.334;16.206;2023-02-28T03:16:59;20.30;;;12.85;;
33810;SDS011;20119;48.334;16.206;2023-02-28T03:19:37;20.27;;;12.43;;
33810;SDS011;20119;48.334;16.206;2023-02-28T03:22:26;21.13;;;13.25;;
33810;SDS011;20119;48.334;16.206;2023-02-28T03:25:05;22.23;;;13.10;;
33810;SDS011;20119;48.334;16.206;2023-02-28T03:27:36;19.98;;;12.93;;
33810;SDS011;20119;48.334;16.206;2023-02-28T03:30:09;22.25;;;13.52;;
33810;SDS011;20119;48.334;16.206;2023-02-28T03:32:42;19.27;;;12.57;;
33810;SDS011;20119;48.334;16.206;2023-02-28T03:35:18;20.73;;;12.90;;
33810;SDS011;20119;48.334;16.206;2023-02-28T03:37:50;24.48;;;13.95;;
33810;SDS011;20119;48.334;16.206;2023-02-28T03:40:21;23.38;;;14.63;;
33810;SDS011;20119;48.334;16.206;2023-02-28T03:42:52;21.88;;;13.77;;
33810;SDS011;20119;48.334;16.206;2023-02-28T03:45:23;21.02;;;13.75;;
33810;SDS011;20119;48.334;16.206;2023-02-28T03:47:55;21.95;;;13.65;;
33810;SDS011;20119;48.334;16.206;2023-02-28T03:50:27;22.30;;;14.10;;
33810;SDS011;20119;48.334;16.206;2023-02-28T03:53:02;26.20;;;14.48;;
33810;SDS011;20119;48.334;16.206;2023-02-28T03:55:37;21.13;;;14.07;;
33810;SDS011;20119;48.334;16.206;2023-02-28T03:58:10;22.70;;;13.98;;
33810;SDS011;20119;48.334;16.206;2023-02-28T04:00:45;23.38;;;14.27;;
33810;SDS011;20119;48.334;16.206;2023-02-28T04:03:15;22.67;;;14.10;;
33810;SDS011;20119;48.334;16.206;2023-02-28T04:05:46;20.60;;;14.23;;
33810;SDS011;20119;48.334;16.206;2023-02-28T04:08:19;21.65;;;13.65;;
33810;SDS011;20119;48.334;16.206;2023-02-28T04:10:48;25.52;;;14.68;;
33810;SDS011;20119;48.334;16.206;2023-02-28T04:13:21;22.02;;;14.02;;
33810;SDS011;20119;48.334;16.206;2023-02-28T04:15:49;22.55;;;14.40;;
33810;SDS011;20119;48.334;16.206;2023-02-28T04:18:16;22.85;;;13.50;;
33810;SDS011;20119;48.334;16.206;2023-02-28T04:20:44;22.10;;;14.00;;
33810;SDS011;20119;48.334;16.206;2023-02-28T04:23:11;26.73;;;14.85;;
33810;SDS011;20119;48.334;16.206;2023-02-28T04:25:39;26.30;;;14.57;;
33810;SDS011;20119;48.334;16.206;2023-02-28T04:28:07;26.33;;;15.48;;
33810;SDS011;20119;48.334;16.206;2023-02-28T04:30:34;23.38;;;15.10;;
33810;SDS011;20119;48.334;16.206;2023-02-28T04:33:03;27.15;;;15.32;;
33810;SDS011;20119;48.334;16.206;2023-02-28T04:35:30;26.75;;;14.80;;
33810;SDS011;20119;48.334;16.206;2023-02-28T04:37:58;24.95;;;13.90;;
33810;SDS011;20119;48.334;16.206;2023-02-28T04:40:25;26.88;;;16.35;;
33810;SDS011;20119;48.334;16.206;2023-02-28T04:42:54;28.17;;;17.55;;
33810;SDS011;20119;48.334;16.206;2023-02-28T04:45:21;24.23;;;15.60;;
33810;SDS011;20119;48.334;16.206;2023-02-28T04:47:48;25.05;;;15.90;;
33810;SDS011;20119;48.334;16.206;2023-02-28T04:50:22;26.98;;;15.77;;
33810;SDS011;20119;48.334;16.206;2023-02-28T04:52:57;28.52;;;16.52;;
33810;SDS011;20119;48.334;16.206;2023-02-28T04:55:28;24.38;;;15.57;;
33810;SDS011;20119;48.334;16.206;2023-02-28T04:57:59;23.98;;;15.77;;
33810;SDS011;20119;48.334;16.206;2023-02-28T05:00:26;24.48;;;15.43;;
33810;SDS011;20119;48.334;16.206;2023-02-28T05:02:54;23.98;;;15.35;;
33810;SDS011;20119;48.334;16.206;2023-02-28T05:05:21;27.58;;;16.92;;
33810;SDS011;20119;48.334;16.206;2023-02-28T05:07:48;32.78;;;17.52;;
33810;SDS011;20119;48.334;16.206;2023-02-28T05:10:15;30.42;;;18.50;;
33810;SDS011;20119;48.334;16.206;2023-02-28T05:12:43;28.73;;;17.48;;
33810;SDS011;20119;48.334;16.206;2023-02-28T05:15:12;28.65;;;16.30;;
33810;SDS011;20119;48.334;16.206;2023-02-28T05:17:40;24.77;;;16.13;;
33810;SDS011;20119;48.334;16.206;2023-02-28T05:20:08;29.65;;;17.05;;
33810;SDS011;20119;48.334;16.206;2023-02-28T05:25:05;27.17;;;15.57;;
33810;SDS011;20119;48.334;16.206;2023-02-28T05:27:33;32.25;;;18.88;;
33810;SDS011;20119;48.334;16.206;2023-02-28T05:30:00;29.17;;;18.15;;
33810;SDS011;20119;48.334;16.206;2023-02-28T05:32:30;26.33;;;17.00;;
33810;SDS011;20119;48.334;16.206;2023-02-28T05:34:57;32.03;;;18.58;;
33810;SDS011;20119;48.334;16.206;2023-02-28T05:37:25;35.58;;;18.20;;
33810;SDS011;20119;48.334;16.206;2023-02-28T05:39:52;29.55;;;17.15;;
33810;SDS011;20119;48.334;16.206;2023-02-28T05:42:19;30.58;;;16.75;;
33810;SDS011;20119;48.334;16.206;2023-02-28T05:44:46;31.52;;;17.55;;
33810;SDS011;20119;48.334;16.206;2023-02-28T05:47:13;26.88;;;16.70;;
33810;SDS011;20119;48.334;16.206;2023-02-28T05:49:43;29.23;;;17.55;;
33810;SDS011;20119;48.334;16.206;2023-02-28T05:52:10;30.55;;;16.83;;
33810;SDS011;20119;48.334;16.206;2023-02-28T05:54:37;32.67;;;20.55;;
33810;SDS011;20119;48.334;16.206;2023-02-28T05:57:05;29.38;;;19.05;;
33810;SDS011;20119;48.334;16.206;2023-02-28T05:59:32;26.27;;;17.05;;
33810;SDS011;20119;48.334;16.206;2023-02-28T06:02:00;28.08;;;16.65;;
33810;SDS011;20119;48.334;16.206;2023-02-28T06:04:27;27.50;;;15.85;;
33810;SDS011;20119;48.334;16.206;2023-02-28T06:06:56;29.67;;;16.63;;
33810;SDS011;20119;48.334;16.206;2023-02-28T06:09:23;26.95;;;16.60;;
33810;SDS011;20119;48.334;16.206;2023-02-28T06:11:51;25.55;;;15.95;;
33810;SDS011;20119;48.334;16.206;2023-02-28T06:14:19;28.77;;;16.40;;
33810;SDS011;20119;48.334;16.206;2023-02-28T06:16:46;27.55;;;15.70;;
33810;SDS011;20119;48.334;16.206;2023-02-28T06:19:14;24.27;;;15.75;;
33810;SDS011;20119;48.334;16.206;2023-02-28T06:21:42;25.45;;;15.77;;
33810;SDS011;20119;48.334;16.206;2023-02-28T06:24:11;29.05;;;16.10;;
33810;SDS011;20119;48.334;16.206;2023-02-28T06:26:38;28.33;;;16.58;;
33810;SDS011;20119;48.334;16.206;2023-02-28T06:29:05;25.63;;;15.50;;
33810;SDS011;20119;48.334;16.206;2023-02-28T06:31:32;25.00;;;15.82;;
33810;SDS011;20119;48.334;16.206;2023-02-28T06:34:00;30.08;;;16.08;;
33810;SDS011;20119;48.334;16.206;2023-02-28T06:36:27;25.33;;;15.98;;
33810;SDS011;20119;48.334;16.206;2023-02-28T06:38:54;23.80;;;15.60;;
33810;SDS011;20119;48.334;16.206;2023-02-28T06:41:23;25.00;;;15.68;;
33810;SDS011;20119;48.334;16.206;2023-02-28T06:43:51;26.27;;;16.70;;
33810;SDS011;20119;48.334;16.206;2023-02-28T06:46:19;23.33;;;14.98;;
33810;SDS011;20119;48.334;16.206;2023-02-28T06:48:46;23.50;;;14.80;;
33810;SDS011;20119;48.334;16.206;2023-02-28T06:51:14;24.88;;;15.02;;
33810;SDS011;20119;48.334;16.206;2023-02-28T06:53:45;25.98;;;15.70;;
33810;SDS011;20119;48.334;16.206;2023-02-28T06:56:13;26.08;;;16.27;;
33810;SDS011;20119;48.334;16.206;2023-02-28T06:58:45;25.83;;;16.13;;
33810;SDS011;20119;48.334;16.206;2023-02-28T07:01:13;28.08;;;16.33;;
33810;SDS011;20119;48.334;16.206;2023-02-28T07:03:41;24.58;;;15.55;;
33810;SDS011;20119;48.334;16.206;2023-02-28T07:06:08;25.00;;;15.93;;
33810;SDS011;20119;48.334;16.206;2023-02-28T07:08:35;23.55;;;15.27;;
33810;SDS011;20119;48.334;16.206;2023-02-28T07:11:02;27.10;;;16.05;;
33810;SDS011;20119;48.334;16.206;2023-02-28T07:13:30;25.10;;;15.88;;
33810;SDS011;20119;48.334;16.206;2023-02-28T07:15:59;24.77;;;15.73;;
33810;SDS011;20119;48.334;16.206;2023-02-28T07:20:55;23.58;;;15.50;;
33810;SDS011;20119;48.334;16.206;2023-02-28T07:23:23;24.40;;;16.20;;
33810;SDS011;20119;48.334;16.206;2023-02-28T07:25:50;25.92;;;16.23;;
33810;SDS011;20119;48.334;16.206;2023-02-28T07:28:17;25.02;;;16.20;;
33810;SDS011;20119;48.334;16.206;2023-02-28T07:30:45;26.10;;;15.90;;
33810;SDS011;20119;48.334;16.206;2023-02-28T07:33:14;27.60;;;16.33;;
33810;SDS011;20119;48.334;16.206;2023-02-28T07:35:42;26.00;;;15.35;;
33810;SDS011;20119;48.334;16.206;2023-02-28T07:38:09;25.38;;;16.23;;
33810;SDS011;20119;48.334;16.206;2023-02-28T07:40:38;31.35;;;16.63;;
33810;SDS011;20119;48.334;16.206;2023-02-28T07:43:06;24.80;;;16.20;;
33810;SDS011;20119;48.334;16.206;2023-02-28T07:45:33;29.13;;;17.10;;
33810;SDS011;20119;48.334;16.206;2023-02-28T07:48:00;24.90;;;16.27;;
33810;SDS011;20119;48.334;16.206;2023-02-28T07:50:30;22.00;;;16.27;;
33810;SDS011;20119;48.334;16.206;2023-02-28T07:52:57;26.88;;;16.75;;
33810;SDS011;20119;48.334;16.206;2023-02-28T07:55:24;26.30;;;16.98;;
33810;SDS011;20119;48.334;16.206;2023-02-28T07:57:51;25.98;;;16.70;;
33810;SDS011;20119;48.334;16.206;2023-02-28T08:00:19;29.88;;;17.02;;
33810;SDS011;20119;48.334;16.206;2023-02-28T08:02:47;25.42;;;17.35;;
33810;SDS011;20119;48.334;16.206;2023-02-28T08:05:14;25.40;;;17.10;;
33810;SDS011;20119;48.334;16.206;2023-02-28T08:07:43;27.75;;;18.20;;
33810;SDS011;20119;48.334;16.206;2023-02-28T08:10:12;26.27;;;17.05;;
33810;SDS011;20119;48.334;16.206;2023-02-28T08:12:39;27.92;;;17.50;;
33810;SDS011;20119;48.334;16.206;2023-02-28T08:15:07;29.77;;;18.38;;
33810;SDS011;20119;48.334;16.206;2023-02-28T08:17:35;28.20;;;18.13;;
33810;SDS011;20119;48.334;16.206;2023-02-28T08:20:02;30.92;;;18.10;;
33810;SDS011;20119;48.334;16.206;2023-02-28T08:22:30;27.67;;;17.60;;
33810;SDS011;20119;48.334;16.206;2023-02-28T08:24:59;28.00;;;18.00;;
33810;SDS011;20119;48.334;16.206;2023-02-28T08:27:26;26.20;;;17.67;;
33810;SDS011;20119;48.334;16.206;2023-02-28T08:29:53;27.77;;;17.40;;
33810;SDS011;20119;48.334;16.206;2023-02-28T08:32:21;29.40;;;18.45;;
33810;SDS011;20119;48.334;16.206;2023-02-28T08:34:49;30.20;;;18.50;;
33810;SDS011;20119;48.334;16.206;2023-02-28T08:37:18;27.40;;;18.00;;
33810;SDS011;20119;48.334;16.206;2023-02-28T08:39:45;30.60;;;19.23;;
33810;SDS011;20119;48.334;16.206;2023-02-28T08:42:14;31.73;;;18.15;;
33810;SDS011;20119;48.334;16.206;2023-02-28T08:44:41;29.67;;;18.48;;
33810;SDS011;20119;48.334;16.206;2023-02-28T08:47:08;30.20;;;18.40;;
33810;SDS011;20119;48.334;16.206;2023-02-28T08:49:36;30.05;;;18.88;;
33810;SDS011;20119;48.334;16.206;2023-02-28T08:52:04;31.30;;;19.60;;
33810;SDS011;20119;48.334;16.206;2023-02-28T08:54:31;31.23;;;19.02;;
33810;SDS011;20119;48.334;16.206;2023-02-28T08:56:59;27.60;;;17.30;;
33810;SDS011;20119;48.334;16.206;2023-02-28T08:59:28;28.73;;;17.35;;
33810;SDS011;20119;48.334;16.206;2023-02-28T09:01:56;26.85;;;17.80;;
33810;SDS011;20119;48.334;16.206;2023-02-28T09:04:23;28.42;;;18.13;;
33810;SDS011;20119;48.334;16.206;2023-02-28T09:06:50;27.60;;;17.10;;
33810;SDS011;20119;48.334;16.206;2023-02-28T09:09:18;26.73;;;17.77;;
33810;SDS011;20119;48.334;16.206;2023-02-28T09:11:45;27.95;;;17.50;;
33810;SDS011;20119;48.334;16.206;2023-02-28T09:14:12;29.73;;;18.83;;
33810;SDS011;20119;48.334;16.206;2023-02-28T09:16:40;27.42;;;18.33;;
33810;SDS011;20119;48.334;16.206;2023-02-28T09:19:10;30.80;;;17.73;;
33810;SDS011;20119;48.334;16.206;2023-02-28T09:21:37;27.15;;;17.85;;
33810;SDS011;20119;48.334;16.206;2023-02-28T09:24:05;26.15;;;18.00;;
33810;SDS011;20119;48.334;16.206;2023-02-28T09:26:34;27.33;;;17.98;;
33810;SDS011;20119;48.334;16.206;2023-02-28T09:29:02;26.60;;;17.90;;
33810;SDS011;20119;48.334;16.206;2023-02-28T09:31:29;29.23;;;18.00;;
33810;SDS011;20119;48.334;16.206;2023-02-28T09:33:58;27.27;;;18.35;;
33810;SDS011;20119;48.334;16.206;2023-02-28T09:36:26;32.58;;;18.27;;
33810;SDS011;20119;48.334;16.206;2023-02-28T09:38:55;32.40;;;17.90;;
33810;SDS011;20119;48.334;16.206;2023-02-28T09:41:23;28.88;;;18.35;;
33810;SDS011;20119;48.334;16.206;2023-02-28T09:43:53;27.58;;;18.30;;
33810;SDS011;20119;48.334;16.206;2023-02-28T09:48:57;29.02;;;17.70;;
33810;SDS011;20119;48.334;16.206;2023-02-28T09:51:31;33.20;;;20.85;;
33810;SDS011;20119;48.334;16.206;2023-02-28T09:54:02;29.13;;;17.88;;
33810;SDS011;20119;48.334;16.206;2023-02-28T09:56:33;27.70;;;18.05;;
33810;SDS011;20119;48.334;16.206;2023-02-28T09:59:06;30.42;;;19.63;;
33810;SDS011;20119;48.334;16.206;2023-02-28T10:01:42;28.67;;;18.15;;
33810;SDS011;20119;48.334;16.206;2023-02-28T10:04:33;30.75;;;19.42;;
33810;SDS011;20119;48.334;16.206;2023-02-28T10:07:07;30.42;;;19.48;;
33810;SDS011;20119;48.334;16.206;2023-02-28T10:09:45;27.40;;;18.42;;
33810;SDS011;20119;48.334;16.206;2023-02-28T10:12:16;30.98;;;20.30;;
33810;SDS011;20119;48.334;16.206;2023-02-28T10:14:44;30.73;;;19.55;;
33810;SDS011;20119;48.334;16.206;2023-02-28T10:19:49;28.75;;;18.95;;
33810;SDS011;20119;48.334;16.206;2023-02-28T10:22:23;29.52;;;18.83;;
33810;SDS011;20119;48.334;16.206;2023-02-28T10:24:54;31.98;;;20.20;;
33810;SDS011;20119;48.334;16.206;2023-02-28T10:27:25;28.27;;;19.58;;
33810;SDS011;20119;48.334;16.206;2023-02-28T10:29:56;30.30;;;20.45;;
33810;SDS011;20119;48.334;16.206;2023-02-28T10:32:25;30.92;;;20.20;;
33810;SDS011;20119;48.334;16.206;2023-02-28T10:37:43;31.90;;;19.73;;
33810;SDS011;20119;48.334;16.206;2023-02-28T10:40:24;33.38;;;20.13;;
33810;SDS011;20119;48.334;16.206;2023-02-28T10:42:55;32.70;;;21.40;;
33810;SDS011;20119;48.334;16.206;2023-02-28T10:45:24;29.15;;;21.17;;
33810;SDS011;20119;48.334;16.206;2023-02-28T10:47:52;29.98;;;20.42;;
33810;SDS011;20119;48.334;16.206;2023-02-28T10:50:29;32.47;;;20.25;;
33810;SDS011;20119;48.334;16.206;2023-02-28T10:55:55;34.13;;;20.65;;
33810;SDS011;20119;48.334;16.206;2023-02-28T10:58:24;32.33;;;20.58;;
33810;SDS011;20119;48.334;16.206;2023-02-28T11:00:53;27.77;;;19.15;;
33810;SDS011;20119;48.334;16.206;2023-02-28T11:03:25;27.58;;;16.95;;
33810;SDS011;20119;48.334;16.206;2023-02-28T11:05:57;26.38;;;18.42;;
33810;SDS011;20119;48.334;16.206;2023-02-28T11:08:25;26.08;;;17.90;;
33810;SDS011;20119;48.334;16.206;2023-02-28T11:10:54;25.50;;;16.08;;
33810;SDS011;20119;48.334;16.206;2023-02-28T11:13:24;25.20;;;14.60;;
33810;SDS011;20119;48.334;16.206;2023-02-28T11:15:55;25.15;;;16.40;;
33810;SDS011;20119;48.334;16.206;2023-02-28T11:18:27;25.53;;;15.67;;
33810;SDS011;20119;48.334;16.206;2023-02-28T11:20:57;25.00;;;15.23;;
33810;SDS011;20119;48.334;16.206;2023-02-28T11:23:28;24.60;;;15.57;;
33810;SDS011;20119;48.334;16.206;2023-02-28T11:25:58;22.65;;;15.82;;
33810;SDS011;20119;48.334;16.206;2023-02-28T11:28:28;24.17;;;15.68;;
33810;SDS011;20119;48.334;16.206;2023-02-28T11:31:00;25.55;;;17.00;;
33810;SDS011;20119;48.334;16.206;2023-02-28T11:33:37;23.73;;;16.38;;
33810;SDS011;20119;48.334;16.206;2023-02-28T11:36:10;26.52;;;18.23;;
33810;SDS011;20119;48.334;16.206;2023-02-28T11:38:41;26.35;;;17.80;;
33810;SDS011;20119;48.334;16.206;2023-02-28T11:41:13;27.83;;;17.80;;
33810;SDS011;20119;48.334;16.206;2023-02-28T11:44:05;27.80;;;17.85;;
33810;SDS011;20119;48.334;16.206;2023-02-28T11:46:46;27.45;;;18.63;;
33810;SDS011;20119;48.334;16.206;2023-02-28T11:49:21;25.73;;;17.70;;
33810;SDS011;20119;48.334;16.206;2023-02-28T11:51:57;28.58;;;18.67;;
33810;SDS011;20119;48.334;16.206;2023-02-28T11:54:35;29.00;;;18.58;;
33810;SDS011;20119;48.334;16.206;2023-02-28T11:57:33;26.38;;;17.25;;
33810;SDS011;20119;48.334;16.206;2023-02-28T12:00:15;25.73;;;18.80;;
33810;SDS011;20119;48.334;16.206;2023-02-28T12:02:58;26.23;;;16.88;;
33810;SDS011;20119;48.334;16.206;2023-02-28T12:05:34;26.00;;;17.65;;
33810;SDS011;20119;48.334;16.206;2023-02-28T12:08:13;25.42;;;17.75;;
33810;SDS011;20119;48.334;16.206;2023-02-28T12:10:54;26.38;;;17.88;;
33810;SDS011;20119;48.334;16.206;2023-02-28T12:13:29;28.33;;;17.55;;
33810;SDS011;20119;48.334;16.206;2023-02-28T12:16:19;26.00;;;18.40;;
33810;SDS011;20119;48.334;16.206;2023-02-28T12:19:12;21.83;;;15.65;;
33810;SDS011;20119;48.334;16.206;2023-02-28T12:21:52;25.08;;;17.15;;
33810;SDS011;20119;48.334;16.206;2023-02-28T12:24:36;24.27;;;15.10;;
33810;SDS011;20119;48.334;16.206;2023-02-28T12:27:16;22.85;;;15.10;;
33810;SDS011;20119;48.334;16.206;2023-02-28T12:29:49;25.98;;;17.77;;
33810;SDS011;20119;48.334;16.206;2023-02-28T12:32:21;25.80;;;18.55;;
33810;SDS011;20119;48.334;16.206;2023-02-28T12:34:53;29.73;;;18.27;;
33810;SDS011;20119;48.334;16.206;2023-02-28T12:37:29;25.23;;;17.67;;
33810;SDS011;20119;48.334;16.206;2023-02-28T12:40:00;27.42;;;18.45;;
33810;SDS011;20119;48.334;16.206;2023-02-28T12:42:32;24.08;;;16.45;;
33810;SDS011;20119;48.334;16.206;2023-02-28T12:45:04;26.15;;;17.85;;
33810;SDS011;20119;48.334;16.206;2023-02-28T12:47:40;23.63;;;16.10;;
33810;SDS011;20119;48.334;16.206;2023-02-28T12:50:11;25.33;;;16.98;;
33810;SDS011;20119;48.334;16.206;2023-02-28T12:52:40;25.95;;;17.65;;
33810;SDS011;20119;48.334;16.206;2023-02-28T12:55:14;26.92;;;17.73;;
33810;SDS011;20119;48.334;16.206;2023-02-28T12:57:52;26.40;;;17.95;;
33810;SDS011;20119;48.334;16.206;2023-02-28T13:00:28;47.17;;;24.95;;
33810;SDS011;20119;48.334;16.206;2023-02-28T13:03:12;23.35;;;16.58;;
33810;SDS011;20119;48.334;16.206;2023-02-28T13:06:03;33.90;;;18.92;;
33810;SDS011;20119;48.334;16.206;2023-02-28T13:08:54;25.15;;;17.10;;
33810;SDS011;20119;48.334;16.206;2023-02-28T13:11:31;25.90;;;17.10;;
33810;SDS011;20119;48.334;16.206;2023-02-28T13:14:02;25.85;;;16.17;;
33810;SDS011;20119;48.334;16.206;2023-02-28T13:19:21;25.55;;;16.40;;
33810;SDS011;20119;48.334;16.206;2023-02-28T13:21:50;24.35;;;15.23;;
33810;SDS011;20119;48.334;16.206;2023-02-28T13:24:36;24.30;;;15.82;;
33810;SDS011;20119;48.334;16.206;2023-02-28T13:31:03;22.50;;;16.02;;
33810;SDS011;20119;48.334;16.206;2023-02-28T13:33:24;22.35;;;15.25;;
33810;SDS011;20119;48.334;16.206;2023-02-28T13:36:09;22.17;;;15.63;;
33810;SDS011;20119;48.334;16.206;2023-02-28T13:38:55;21.40;;;14.02;;
33810;SDS011;20119;48.334;16.206;2023-02-28T13:41:42;21.10;;;15.25;;
33810;SDS011;20119;48.334;16.206;2023-02-28T13:44:14;24.58;;;15.27;;
33810;SDS011;20119;48.334;16.206;2023-02-28T13:49:49;23.25;;;15.65;;
33810;SDS011;20119;48.334;16.206;2023-02-28T13:52:18;22.30;;;15.32;;
33810;SDS011;20119;48.334;16.206;2023-02-28T13:54:52;22.23;;;15.55;;
33810;SDS011;20119;48.334;16.206;2023-02-28T13:57:42;23.08;;;15.60;;
33810;SDS011;20119;48.334;16.206;2023-02-28T14:00:26;19.95;;;14.00;;
33810;SDS011;20119;48.334;16.206;2023-02-28T14:03:14;21.67;;;15.68;;
33810;SDS011;20119;48.334;16.206;2023-02-28T14:08:56;22.77;;;15.30;;
33810;SDS011;20119;48.334;16.206;2023-02-28T14:11:30;23.15;;;15.15;;
33810;SDS011;20119;48.334;16.206;2023-02-28T14:14:00;23.60;;;14.85;;
33810;SDS011;20119;48.334;16.206;2023-02-28T14:16:34;21.60;;;15.25;;
33810;SDS011;20119;48.334;16.206;2023-02-28T14:19:10;22.13;;;14.75;;
33810;SDS011;20119;48.334;16.206;2023-02-28T14:21:47;23.95;;;14.52;;
33810;SDS011;20119;48.334;16.206;2023-02-28T14:24:30;23.73;;;15.10;;
33810;SDS011;20119;48.334;16.206;2023-02-28T14:27:32;23.67;;;15.87;;
33810;SDS011;20119;48.334;16.206;2023-02-28T14:30:29;23.73;;;15.00;;
33810;SDS011;20119;48.334;16.206;2023-02-28T14:33:25;20.92;;;14.55;;
33810;SDS011;20119;48.334;16.206;2023-02-28T14:36:00;19.55;;;13.95;;
33810;SDS011;20119;48.334;16.206;2023-02-28T14:38:35;20.90;;;14.45;;
33810;SDS011;20119;48.334;16.206;2023-02-28T14:41:12;22.17;;;14.98;;
33810;SDS011;20119;48.334;16.206;2023-02-28T14:43:49;21.52;;;15.45;;
33810;SDS011;20119;48.334;16.206;2023-02-28T14:46:19;19.65;;;13.13;;
33810;SDS011;20119;48.334;16.206;2023-02-28T14:48:47;18.95;;;12.27;;
33810;SDS011;20119;48.334;16.206;2023-02-28T14:51:18;19.92;;;13.05;;
33810;SDS011;20119;48.334;16.206;2023-02-28T14:53:49;20.30;;;13.48;;
33810;SDS011;20119;48.334;16.206;2023-02-28T14:56:19;19.83;;;13.55;;
33810;SDS011;20119;48.334;16.206;2023-02-28T14:58:52;19.52;;;13.68;;
33810;SDS011;20119;48.334;16.206;2023-02-28T15:01:22;20.17;;;13.63;;
33810;SDS011;20119;48.334;16.206;2023-02-28T15:03:56;17.63;;;13.15;;
33810;SDS011;20119;48.334;16.206;2023-02-28T15:06:26;20.25;;;13.52;;
33810;SDS011;20119;48.334;16.206;2023-02-28T15:09:08;16.95;;;12.65;;
33810;SDS011;20119;48.334;16.206;2023-02-28T15:11:38;19.52;;;12.50;;
33810;SDS011;20119;48.334;16.206;2023-02-28T15:14:06;18.83;;;13.13;;
33810;SDS011;20119;48.334;16.206;2023-02-28T15:16:40;18.52;;;13.10;;
33810;SDS011;20119;48.334;16.206;2023-02-28T15:19:12;21.67;;;13.52;;